createdAt,value
2023-05-09T00:01:31.751Z,99855.63
2023-05-09T00:04:00.302Z,99863.94
2023-05-09T00:06:29.904Z,99862.38
2023-05-09T00:08:58.002Z,99864.84
2023-05-09T00:11:26.165Z,99859.06
2023-05-09T00:13:54.284Z,99860.91
2023-05-09T00:16:24.281Z,99862.78
2023-05-09T00:18:53.006Z,99861.81
2023-05-09T00:21:21.272Z,99867.44
2023-05-09T00:23:50.857Z,99862.78
2023-05-09T00:26:19.028Z,99856.81
2023-05-09T00:28:47.091Z,99860.78
2023-05-09T00:31:16.774Z,99862.38
2023-05-09T00:33:45.152Z,99867.00
2023-05-09T00:36:13.237Z,99866.66
2023-05-09T00:38:41.485Z,99865.16
2023-05-09T00:41:11.031Z,99867.56
2023-05-09T00:43:39.182Z,99872.06
2023-05-09T00:46:07.500Z,99871.75
2023-05-09T00:48:35.910Z,99869.44
2023-05-09T00:51:05.006Z,99873.06
2023-05-09T00:53:33.814Z,99880.44
2023-05-09T00:56:01.991Z,99883.63
2023-05-09T00:58:31.708Z,99875.72
2023-05-09T01:01:01.869Z,99882.47
2023-05-09T01:03:30.676Z,99881.47
2023-05-09T01:06:06.722Z,99886.66
2023-05-09T01:08:45.662Z,99890.19
2023-05-09T01:11:22.289Z,99890.97
2023-05-09T01:14:02.500Z,99886.41
2023-05-09T01:16:37.684Z,99888.97
2023-05-09T01:19:21.038Z,99895.09
2023-05-09T01:21:51.093Z,99891.16
2023-05-09T01:24:54.734Z,99895.09
2023-05-09T01:27:26.807Z,99903.47
2023-05-09T01:29:59.181Z,99889.91
2023-05-09T01:32:29.512Z,99898.25
2023-05-09T01:35:02.614Z,99897.16
2023-05-09T01:37:34.194Z,99890.59
2023-05-09T01:40:11.660Z,99893.13
2023-05-09T01:42:44.261Z,99893.34
2023-05-09T01:45:16.898Z,99894.47
2023-05-09T01:47:46.046Z,99896.75
2023-05-09T01:50:14.414Z,99897.31
2023-05-09T01:52:44.655Z,99895.38
2023-05-09T01:55:13.770Z,99893.34
2023-05-09T01:57:43.314Z,99893.47
2023-05-09T02:00:15.030Z,99895.84
2023-05-09T02:02:44.676Z,99901.63
2023-05-09T02:05:13.759Z,99901.50
2023-05-09T02:07:43.396Z,99901.25
2023-05-09T02:10:13.509Z,99902.84
2023-05-09T02:12:41.651Z,99905.13
2023-05-09T02:15:10.777Z,99906.00
2023-05-09T02:17:40.264Z,99906.22
2023-05-09T02:20:13.435Z,99905.56
2023-05-09T02:22:43.183Z,99909.41
2023-05-09T02:25:15.260Z,99910.06
2023-05-09T02:27:47.192Z,99903.66
2023-05-09T02:30:20.783Z,99909.28
2023-05-09T02:32:53.301Z,99917.75
2023-05-09T02:35:22.947Z,99911.41
2023-05-09T02:37:51.154Z,99911.78
2023-05-09T02:40:20.532Z,99913.44
2023-05-09T02:42:48.653Z,99930.28
2023-05-09T02:45:17.245Z,99926.22
2023-05-09T02:47:45.708Z,99932.56
2023-05-09T02:50:15.391Z,99927.69
2023-05-09T02:52:43.418Z,99932.41
2023-05-09T02:55:12.391Z,99930.16
2023-05-09T02:57:40.817Z,99929.38
2023-05-09T03:00:10.529Z,99932.66
2023-05-09T03:02:39.682Z,99928.59
2023-05-09T03:05:08.802Z,99925.88
2023-05-09T03:07:38.305Z,99926.69
2023-05-09T03:10:07.708Z,99931.50
2023-05-09T03:12:35.893Z,99934.91
2023-05-09T03:15:04.367Z,99931.19
2023-05-09T03:17:32.556Z,99940.56
2023-05-09T03:20:03.228Z,99947.47
2023-05-09T03:22:32.283Z,99948.25
2023-05-09T03:25:02.841Z,99954.34
2023-05-09T03:27:31.544Z,99950.75
2023-05-09T03:29:59.735Z,99957.97
2023-05-09T03:32:28.528Z,99959.31
2023-05-09T03:34:57.319Z,99968.91
2023-05-09T03:37:27.088Z,99968.13
2023-05-09T03:39:55.397Z,99971.31
2023-05-09T03:42:24.904Z,99970.28
2023-05-09T03:44:53.142Z,99967.03
2023-05-09T03:47:21.961Z,99973.22
2023-05-09T03:49:50.235Z,99975.59
2023-05-09T03:52:18.432Z,99976.28
2023-05-09T03:54:46.616Z,99984.63
2023-05-09T03:57:14.593Z,99976.69
2023-05-09T03:59:44.420Z,99983.16
2023-05-09T04:02:12.965Z,99979.91
2023-05-09T04:04:41.277Z,99974.91
2023-05-09T04:07:09.466Z,99976.28
2023-05-09T04:09:37.947Z,99983.50
2023-05-09T04:12:06.677Z,99976.72
2023-05-09T04:14:34.755Z,99982.16
2023-05-09T04:17:04.859Z,99978.66
2023-05-09T04:19:33.420Z,99988.22
2023-05-09T04:22:01.572Z,99993.19
2023-05-09T04:24:29.570Z,99994.69
2023-05-09T04:26:58.594Z,99990.16
2023-05-09T04:29:27.277Z,99988.47
2023-05-09T04:31:55.920Z,99995.81
2023-05-09T04:34:29.860Z,99991.53
2023-05-09T04:36:58.221Z,99993.69
2023-05-09T04:39:26.825Z,99990.28
2023-05-09T04:41:55.702Z,99993.56
2023-05-09T04:44:25.232Z,99998.53
2023-05-09T04:46:55.267Z,99999.63
2023-05-09T04:49:23.588Z,99987.69
2023-05-09T04:51:56.772Z,99990.06
2023-05-09T04:54:25.061Z,99998.06
2023-05-09T04:56:56.041Z,99993.34
2023-05-09T04:59:28.621Z,99995.69
2023-05-09T05:01:56.985Z,100002.72
2023-05-09T05:04:26.232Z,100004.72
2023-05-09T05:06:55.835Z,100008.34
2023-05-09T05:09:24.386Z,100005.19
2023-05-09T05:12:00.733Z,100014.78
2023-05-09T05:14:31.229Z,100006.09
2023-05-09T05:16:59.568Z,100007.00
2023-05-09T05:19:29.070Z,100008.47
2023-05-09T05:21:59.064Z,99998.97
2023-05-09T05:24:27.415Z,100010.97
2023-05-09T05:26:55.697Z,100017.88
2023-05-09T05:29:25.171Z,100008.47
2023-05-09T05:31:53.569Z,100019.22
2023-05-09T05:34:24.008Z,100017.38
2023-05-09T05:36:52.446Z,100025.97
2023-05-09T05:39:22.224Z,100029.06
2023-05-09T05:41:53.370Z,100031.75
2023-05-09T05:44:21.521Z,100027.31
2023-05-09T05:46:49.764Z,100026.09
2023-05-09T05:49:17.936Z,100029.81
2023-05-09T05:51:46.079Z,100029.84
2023-05-09T05:54:14.820Z,100033.22
2023-05-09T05:56:45.422Z,100031.63
2023-05-09T05:59:13.760Z,100025.19
2023-05-09T06:01:42.158Z,100033.56
2023-05-09T06:04:10.999Z,100033.91
2023-05-09T06:06:39.439Z,100024.28
2023-05-09T06:09:07.855Z,100026.00
2023-05-09T06:11:36.832Z,100021.00
2023-05-09T06:14:08.827Z,100021.91
2023-05-09T06:16:37.714Z,100028.00
2023-05-09T06:19:07.852Z,100030.84
2023-05-09T06:21:36.692Z,100029.50
2023-05-09T06:24:11.779Z,100029.59
2023-05-09T06:26:40.742Z,100026.44
2023-05-09T06:29:10.962Z,100027.25
2023-05-09T06:31:42.581Z,100024.63
2023-05-09T06:34:11.909Z,100029.16
2023-05-09T06:36:40.172Z,100033.66
2023-05-09T06:39:08.607Z,100031.63
2023-05-09T06:41:37.495Z,100030.94
2023-05-09T06:44:11.713Z,100037.84
2023-05-09T06:46:40.360Z,100022.81
2023-05-09T06:49:08.843Z,100020.31
2023-05-09T06:51:37.299Z,100023.16
2023-05-09T06:54:05.642Z,100028.78
2023-05-09T06:56:38.342Z,100032.75
2023-05-09T06:59:11.515Z,100035.69
2023-05-09T07:01:43.612Z,100038.72
2023-05-09T07:04:14.443Z,100042.25
2023-05-09T07:06:44.294Z,100044.75
2023-05-09T07:09:15.448Z,100052.44
2023-05-09T07:11:44.481Z,100048.81
2023-05-09T07:14:13.084Z,100049.25
2023-05-09T07:16:43.473Z,100045.88
2023-05-09T07:19:13.517Z,100047.44
2023-05-09T07:21:46.748Z,100056.72
2023-05-09T07:24:22.011Z,100048.56
2023-05-09T07:26:50.785Z,100057.94
2023-05-09T07:29:20.840Z,100052.41
2023-05-09T07:31:51.853Z,100050.59
2023-05-09T07:34:20.934Z,100041.31
2023-05-09T07:36:49.459Z,100044.50
2023-05-09T07:39:19.399Z,100039.94
2023-05-09T07:41:48.735Z,100044.81
2023-05-09T07:44:24.026Z,100050.38
2023-05-09T07:46:56.501Z,100053.00
2023-05-09T07:49:25.048Z,100050.34
2023-05-09T07:51:54.001Z,100051.03
2023-05-09T07:54:22.110Z,100057.47
2023-05-09T07:56:51.494Z,100062.81
2023-05-09T07:59:20.400Z,100055.53
2023-05-09T08:01:49.081Z,100059.72
2023-05-09T08:04:19.210Z,100062.31
2023-05-09T08:06:47.558Z,100051.59
2023-05-09T08:09:16.598Z,100061.66
2023-05-09T08:11:50.372Z,100049.09
2023-05-09T08:14:18.964Z,100058.44
2023-05-09T08:16:47.921Z,100051.53
2023-05-09T08:19:17.065Z,100041.03
2023-05-09T08:21:47.071Z,100049.59
2023-05-09T08:24:15.512Z,100051.41
2023-05-09T08:26:44.195Z,100049.03
2023-05-09T08:29:12.694Z,100058.16
2023-05-09T08:31:42.029Z,100050.13
2023-05-09T08:34:10.353Z,100050.59
2023-05-09T08:36:41.930Z,100050.38
2023-05-09T08:39:11.475Z,100054.31
2023-05-09T08:41:40.978Z,100047.88
2023-05-09T08:44:09.645Z,100056.56
2023-05-09T08:46:44.279Z,100049.44
2023-05-09T08:49:13.447Z,100058.38
2023-05-09T08:51:42.182Z,100054.78
2023-05-09T08:54:12.329Z,100056.25
2023-05-09T08:56:41.544Z,100050.81
2023-05-09T08:59:10.338Z,100047.09
2023-05-09T09:01:38.511Z,100049.59
2023-05-09T09:04:08.258Z,100054.31
2023-05-09T09:06:40.719Z,100055.72
2023-05-09T09:09:13.869Z,100061.69
2023-05-09T09:11:48.307Z,100052.31
2023-05-09T09:14:27.288Z,100049.22
2023-05-09T09:17:02.756Z,100053.16
2023-05-09T09:19:37.498Z,100044.19
2023-05-09T09:22:07.023Z,100050.19
2023-05-09T09:24:38.287Z,100050.22
2023-05-09T09:27:09.686Z,100048.97
2023-05-09T09:29:40.130Z,100047.81
2023-05-09T09:32:09.093Z,100049.03
2023-05-09T09:34:37.700Z,100050.19
2023-05-09T09:37:09.029Z,100051.41
2023-05-09T09:39:39.799Z,100047.91
2023-05-09T09:42:18.269Z,100050.22
2023-05-09T09:44:46.568Z,100052.53
2023-05-09T09:47:15.381Z,100044.06
2023-05-09T09:49:48.724Z,100039.53
2023-05-09T09:52:25.688Z,100041.22
2023-05-09T09:54:59.030Z,100041.28
2023-05-09T09:57:47.110Z,100042.06
2023-05-09T10:00:18.495Z,100036.69
2023-05-09T10:02:52.297Z,100049.25
2023-05-09T10:05:22.866Z,100043.25
2023-05-09T10:07:59.571Z,100048.03
2023-05-09T10:10:30.700Z,100043.81
2023-05-09T10:13:04.345Z,100042.22
2023-05-09T10:15:49.140Z,100056.28
2023-05-09T10:18:27.182Z,100050.50
2023-05-09T10:20:57.739Z,100047.75
2023-05-09T10:23:29.668Z,100055.16
2023-05-09T10:26:08.820Z,100056.09
2023-05-09T10:28:41.673Z,100048.19
2023-05-09T10:31:16.700Z,100048.63
2023-05-09T10:33:50.117Z,100055.22
2023-05-09T10:36:22.040Z,100062.88
2023-05-09T10:38:51.827Z,100063.47
2023-05-09T10:41:23.894Z,100059.00
2023-05-09T10:43:58.581Z,100057.84
2023-05-09T10:46:28.491Z,100064.94
2023-05-09T10:48:57.785Z,100061.63
2023-05-09T10:51:27.803Z,100057.06
2023-05-09T10:53:58.647Z,100059.97
2023-05-09T10:56:32.031Z,100057.16
2023-05-09T10:59:01.722Z,100060.41
2023-05-09T11:01:35.010Z,100069.28
2023-05-09T11:04:11.726Z,100062.31
2023-05-09T11:06:51.534Z,100053.63
2023-05-09T11:09:35.949Z,100051.53
2023-05-09T11:12:17.501Z,100051.59
2023-05-09T11:14:54.120Z,100048.63
2023-05-09T11:17:32.655Z,100049.81
2023-05-09T11:20:05.837Z,100048.53
2023-05-09T11:22:41.573Z,100042.63
2023-05-09T11:25:14.101Z,100044.28
2023-05-09T11:27:48.068Z,100044.81
2023-05-09T11:30:17.793Z,100050.94
2023-05-09T11:32:49.720Z,100046.38
2023-05-09T11:35:21.589Z,100043.03
2023-05-09T11:37:56.191Z,100046.94
2023-05-09T11:40:25.550Z,100042.31
2023-05-09T11:42:58.673Z,100052.00
2023-05-09T11:45:33.475Z,100040.16
2023-05-09T11:48:03.662Z,100044.25
2023-05-09T11:50:32.065Z,100048.03
2023-05-09T11:53:00.273Z,100050.06
2023-05-09T11:55:30.321Z,100038.13
2023-05-09T11:58:00.750Z,100037.97
2023-05-09T12:00:29.626Z,100041.25
2023-05-09T12:02:57.987Z,100038.94
2023-05-09T12:05:27.202Z,100040.91
2023-05-09T12:07:58.603Z,100038.22
2023-05-09T12:10:27.350Z,100038.16
2023-05-09T12:12:57.552Z,100035.16
2023-05-09T12:15:28.655Z,100042.00
2023-05-09T12:18:07.042Z,100030.94
2023-05-09T12:20:44.202Z,100031.66
2023-05-09T12:23:14.909Z,100024.41
2023-05-09T12:25:49.720Z,100031.09
2023-05-09T12:28:19.294Z,100023.03
2023-05-09T12:30:49.167Z,100020.53
2023-05-09T12:33:17.987Z,100024.25
2023-05-09T12:35:48.625Z,100013.63
2023-05-09T12:38:22.662Z,100008.84
2023-05-09T12:41:03.406Z,100008.03
2023-05-09T12:43:33.428Z,100001.13
2023-05-09T12:46:08.895Z,100004.06
2023-05-09T12:48:39.811Z,100003.72
2023-05-09T12:51:08.843Z,100000.69
2023-05-09T12:53:41.080Z,100005.41
2023-05-09T12:56:15.777Z,100003.16
2023-05-09T12:58:57.214Z,100001.84
2023-05-09T13:01:30.082Z,100001.75
2023-05-09T13:04:04.093Z,99993.13
2023-05-09T13:06:32.571Z,99986.88
2023-05-09T13:09:02.421Z,99986.16
2023-05-09T13:11:31.250Z,99980.72
2023-05-09T13:14:00.173Z,99986.88
2023-05-09T13:16:30.500Z,99989.53
2023-05-09T13:18:58.704Z,99989.19
2023-05-09T13:21:27.506Z,99993.28
2023-05-09T13:23:57.748Z,99986.28
2023-05-09T13:26:27.609Z,99980.56
2023-05-09T13:28:56.135Z,99980.94
2023-05-09T13:31:25.167Z,99981.53
2023-05-09T13:33:55.867Z,99979.06
2023-05-09T13:36:24.435Z,99986.84
2023-05-09T13:38:53.124Z,99986.63
2023-05-09T13:41:23.837Z,99980.63
2023-05-09T13:43:52.086Z,99982.19
2023-05-09T13:46:20.668Z,99982.81
2023-05-09T13:48:49.145Z,99977.66
2023-05-09T13:51:19.171Z,99978.91
2023-05-09T13:53:47.760Z,99981.28
2023-05-09T13:56:16.045Z,99978.22
2023-05-09T13:58:44.310Z,99982.31
2023-05-09T14:01:13.100Z,99975.47
2023-05-09T14:03:41.899Z,99974.75
2023-05-09T14:06:13.392Z,99987.63
2023-05-09T14:08:43.729Z,99979.91
2023-05-09T14:11:12.290Z,99973.09
2023-05-09T14:13:40.454Z,99975.13
2023-05-09T14:16:09.125Z,99970.88
2023-05-09T14:18:37.533Z,99979.91
2023-05-09T14:21:06.639Z,99987.00
2023-05-09T14:23:34.989Z,99982.69
2023-05-09T14:26:05.132Z,99980.41
2023-05-09T14:28:33.278Z,99983.69
2023-05-09T14:31:03.107Z,99992.38
2023-05-09T14:33:31.475Z,99990.09
2023-05-09T14:36:01.390Z,99985.28
2023-05-09T14:38:30.279Z,99984.84
2023-05-09T14:40:58.837Z,99989.06
2023-05-09T14:43:28.725Z,99995.78
2023-05-09T14:45:57.322Z,99993.66
2023-05-09T14:48:25.499Z,99990.50
2023-05-09T14:50:57.089Z,99993.28
2023-05-09T14:53:27.702Z,99993.22
2023-05-09T14:55:56.351Z,99991.34
2023-05-09T14:58:25.136Z,100001.00
2023-05-09T15:00:54.962Z,99998.22
2023-05-09T15:03:23.699Z,99992.06
2023-05-09T15:05:55.531Z,99989.06
2023-05-09T15:08:23.846Z,99989.94
2023-05-09T15:10:52.345Z,99991.28
2023-05-09T15:13:21.118Z,99988.28
2023-05-09T15:15:51.328Z,99984.97
2023-05-09T15:18:23.677Z,99984.00
2023-05-09T15:20:52.603Z,99979.84
2023-05-09T15:23:20.945Z,99984.78
2023-05-09T15:25:49.445Z,99986.19
2023-05-09T15:28:18.028Z,99996.47
2023-05-09T15:30:46.335Z,99986.22
2023-05-09T15:33:14.595Z,99989.59
2023-05-09T15:35:50.278Z,99986.63
2023-05-09T15:38:18.440Z,99987.69
2023-05-09T15:40:46.505Z,99988.56
2023-05-09T15:43:14.686Z,99994.16
2023-05-09T15:45:45.853Z,99995.66
2023-05-09T15:48:14.425Z,99991.63
2023-05-09T15:50:45.922Z,99987.75
2023-05-09T15:53:17.078Z,99989.75
2023-05-09T15:55:45.692Z,99990.06
2023-05-09T15:58:17.050Z,99987.88
2023-05-09T16:00:45.646Z,99986.38
2023-05-09T16:03:21.475Z,99979.81
2023-05-09T16:05:52.419Z,99984.81
2023-05-09T16:08:22.999Z,99985.31
2023-05-09T16:10:52.299Z,99986.47
2023-05-09T16:13:21.545Z,99984.47
2023-05-09T16:15:51.145Z,99986.44
2023-05-09T16:18:19.464Z,99987.69
2023-05-09T16:20:48.136Z,99990.56
2023-05-09T16:23:19.250Z,99989.69
2023-05-09T16:25:49.983Z,99997.84
2023-05-09T16:28:19.456Z,99986.81
2023-05-09T16:30:47.763Z,99983.47
2023-05-09T16:33:16.535Z,99979.69
2023-05-09T16:35:44.710Z,99981.97
2023-05-09T16:38:14.992Z,99988.38
2023-05-09T16:40:44.581Z,99992.59
2023-05-09T16:43:12.632Z,99986.91
2023-05-09T16:45:40.823Z,99990.75
2023-05-09T16:48:09.189Z,99989.88
2023-05-09T16:50:38.142Z,99993.03
2023-05-09T16:53:06.386Z,99994.69
2023-05-09T16:55:34.710Z,99999.25
2023-05-09T16:58:08.128Z,99997.78
2023-05-09T17:00:37.196Z,99996.09
2023-05-09T17:03:06.087Z,100000.75
2023-05-09T17:05:34.629Z,99996.47
2023-05-09T17:08:03.485Z,100002.06
2023-05-09T17:10:31.666Z,100003.72
2023-05-09T17:13:00.640Z,100000.41
2023-05-09T17:15:31.320Z,100002.75
2023-05-09T17:17:59.477Z,100006.88
2023-05-09T17:20:28.995Z,100007.16
2023-05-09T17:22:58.360Z,100001.34
2023-05-09T17:25:26.655Z,100009.84
2023-05-09T17:27:55.758Z,100003.25
2023-05-09T17:30:26.430Z,100007.47
2023-05-09T17:32:56.715Z,100008.53
2023-05-09T17:35:26.113Z,100002.69
2023-05-09T17:37:54.636Z,100004.69
2023-05-09T17:40:23.196Z,100003.31
2023-05-09T17:42:51.639Z,100003.88
2023-05-09T17:45:21.122Z,100013.91
2023-05-09T17:47:49.897Z,100015.66
2023-05-09T17:50:21.636Z,100014.19
2023-05-09T17:52:51.046Z,100010.75
2023-05-09T17:55:19.483Z,100015.03
2023-05-09T17:57:47.815Z,100010.31
2023-05-09T18:00:23.865Z,100006.72
2023-05-09T18:02:52.326Z,100016.78
2023-05-09T18:05:26.085Z,100011.78
2023-05-09T18:07:55.069Z,100012.56
2023-05-09T18:10:23.823Z,100010.09
2023-05-09T18:12:52.272Z,100010.03
2023-05-09T18:15:21.413Z,100016.38
2023-05-09T18:17:49.936Z,100016.31
2023-05-09T18:20:20.573Z,100020.13
2023-05-09T18:22:54.417Z,100020.03
2023-05-09T18:25:22.874Z,100017.31
2023-05-09T18:27:51.299Z,100017.69
2023-05-09T18:30:21.985Z,100019.75
2023-05-09T18:32:50.076Z,100025.28
2023-05-09T18:35:18.212Z,100028.13
2023-05-09T18:37:46.385Z,100024.25
2023-05-09T18:40:16.402Z,100026.72
2023-05-09T18:42:44.917Z,100029.56
2023-05-09T18:45:14.687Z,100028.97
2023-05-09T18:47:42.977Z,100028.28
2023-05-09T18:50:13.692Z,100026.56
2023-05-09T18:52:44.560Z,100031.84
2023-05-09T18:55:14.975Z,100030.97
2023-05-09T18:57:44.823Z,100038.41
2023-05-09T19:00:15.125Z,100034.63
2023-05-09T19:02:43.920Z,100029.88
2023-05-09T19:05:12.843Z,100034.31
2023-05-09T19:07:43.828Z,100041.59
2023-05-09T19:10:13.430Z,100032.88
2023-05-09T19:12:41.975Z,100040.34
2023-05-09T19:15:15.474Z,100034.00
2023-05-09T19:17:44.115Z,100037.56
2023-05-09T19:20:15.246Z,100034.16
2023-05-09T19:22:48.306Z,100040.28
2023-05-09T19:25:20.736Z,100036.47
2023-05-09T19:27:53.438Z,100038.47
2023-05-09T19:30:23.647Z,100043.47
2023-05-09T19:32:52.425Z,100045.72
2023-05-09T19:35:22.794Z,100045.47
2023-05-09T19:37:51.304Z,100040.53
2023-05-09T19:40:20.585Z,100041.47
2023-05-09T19:42:49.197Z,100047.25
2023-05-09T19:45:17.828Z,100042.81
2023-05-09T19:47:48.937Z,100047.28
2023-05-09T19:50:17.940Z,100046.41
2023-05-09T19:52:47.086Z,100040.91
2023-05-09T19:55:16.076Z,100035.72
2023-05-09T19:57:44.424Z,100036.31
2023-05-09T20:00:14.397Z,100038.69
2023-05-09T20:02:43.394Z,100048.19
2023-05-09T20:05:13.105Z,100041.28
2023-05-09T20:07:41.531Z,100037.66
2023-05-09T20:10:18.293Z,100027.94
2023-05-09T20:12:47.394Z,100033.38
2023-05-09T20:15:15.656Z,100033.00
2023-05-09T20:17:44.900Z,100028.13
2023-05-09T20:20:16.723Z,100039.03
2023-05-09T20:22:45.078Z,100040.59
2023-05-09T20:25:13.813Z,100038.38
2023-05-09T20:27:44.490Z,100048.78
2023-05-09T20:30:16.056Z,100032.94
2023-05-09T20:32:45.427Z,100044.72
2023-05-09T20:35:15.909Z,100044.03
2023-05-09T20:37:47.407Z,100032.41
2023-05-09T20:40:15.954Z,100038.25
2023-05-09T20:42:44.389Z,100034.97
2023-05-09T20:45:14.107Z,100034.88
2023-05-09T20:47:43.477Z,100042.56
2023-05-09T20:50:12.939Z,100029.31
2023-05-09T20:52:42.918Z,100032.81
2023-05-09T20:55:11.911Z,100037.38
2023-05-09T20:57:40.575Z,100037.38
2023-05-09T21:00:10.267Z,100035.91
2023-05-09T21:02:38.644Z,100039.16
2023-05-09T21:05:07.602Z,100029.56
2023-05-09T21:07:35.955Z,100028.31
2023-05-09T21:10:08.661Z,100028.13
2023-05-09T21:12:37.929Z,100034.78
2023-05-09T21:15:07.171Z,100037.41
2023-05-09T21:17:35.585Z,100029.81
2023-05-09T21:20:03.781Z,100029.16
2023-05-09T21:22:33.119Z,100036.59
2023-05-09T21:25:01.379Z,100040.69
2023-05-09T21:27:37.608Z,100022.81
2023-05-09T21:30:08.886Z,100030.53
2023-05-09T21:32:37.368Z,100030.63
2023-05-09T21:35:11.252Z,100024.19
2023-05-09T21:37:39.473Z,100025.75
2023-05-09T21:40:10.498Z,100033.00
2023-05-09T21:42:41.236Z,100027.91
2023-05-09T21:45:10.648Z,100028.34
2023-05-09T21:47:40.139Z,100032.88
2023-05-09T21:50:09.793Z,100027.31
2023-05-09T21:52:38.094Z,100025.75
2023-05-09T21:55:06.842Z,100021.00
2023-05-09T21:57:34.992Z,100023.50
2023-05-09T22:00:05.795Z,100030.84
2023-05-09T22:02:35.456Z,100021.69
2023-05-09T22:05:03.694Z,100025.28
2023-05-09T22:07:31.876Z,100024.41
2023-05-09T22:10:00.215Z,100020.00
2023-05-09T22:12:28.820Z,100028.47
2023-05-09T22:14:57.107Z,100030.16
2023-05-09T22:17:26.893Z,100033.09
2023-05-09T22:19:55.572Z,100035.47
2023-05-09T22:22:24.705Z,100035.22
2023-05-09T22:24:53.091Z,100039.66
2023-05-09T22:27:21.203Z,100030.25
2023-05-09T22:29:49.761Z,100026.78
2023-05-09T22:32:17.975Z,100030.63
2023-05-09T22:34:49.566Z,100035.91
2023-05-09T22:37:17.766Z,100025.91
2023-05-09T22:39:46.114Z,100031.03
2023-05-09T22:42:14.915Z,100028.56
2023-05-09T22:44:43.446Z,100021.31
2023-05-09T22:47:12.499Z,100021.84
2023-05-09T22:49:40.787Z,100021.75
2023-05-09T22:52:10.493Z,100023.88
2023-05-09T22:54:38.697Z,100025.91
2023-05-09T22:57:07.907Z,100024.25
2023-05-09T22:59:37.033Z,100020.81
2023-05-09T23:02:06.581Z,100018.03
2023-05-09T23:04:34.952Z,100015.31
2023-05-09T23:07:03.165Z,100021.84
2023-05-09T23:09:33.412Z,100010.13
2023-05-09T23:12:03.105Z,100008.88
2023-05-09T23:14:32.223Z,100008.19
2023-05-09T23:17:00.894Z,100015.88
2023-05-09T23:19:29.670Z,100011.44
2023-05-09T23:21:58.681Z,100014.72
2023-05-09T23:24:27.400Z,100015.63
2023-05-09T23:26:58.087Z,100006.13
2023-05-09T23:29:26.380Z,99999.59
2023-05-09T23:31:54.626Z,99998.47
2023-05-09T23:34:22.785Z,100000.28
2023-05-09T23:36:51.200Z,99999.56
2023-05-09T23:39:19.608Z,100001.59
2023-05-09T23:41:48.241Z,100003.41
2023-05-09T23:44:18.018Z,99993.81
2023-05-09T23:46:46.409Z,99992.72
2023-05-09T23:49:14.787Z,99984.03
2023-05-09T23:51:43.189Z,99986.84
2023-05-09T23:54:12.079Z,99991.22
2023-05-09T23:56:40.830Z,99986.59
2023-05-09T23:59:09.647Z,99977.78
